createdAt,value
2022-08-29T00:01:38.640Z,1.40
2022-08-29T00:05:00.329Z,1.23
2022-08-29T00:08:22.141Z,1.30
2022-08-29T00:11:46.442Z,1.10
2022-08-29T00:15:09.847Z,1.23
2022-08-29T00:18:32.837Z,1.35
2022-08-29T00:21:54.687Z,1.30
2022-08-29T00:25:16.967Z,1.50
2022-08-29T00:28:38.807Z,1.38
2022-08-29T00:32:00.586Z,1.30
2022-08-29T00:35:31.075Z,1.30
2022-08-29T00:38:53.269Z,1.65
2022-08-29T00:42:15.513Z,1.35
2022-08-29T00:45:43.144Z,1.10
2022-08-29T00:49:24.570Z,1.50
2022-08-29T00:52:48.449Z,1.08
2022-08-29T00:56:14.174Z,1.40
2022-08-29T00:59:39.392Z,1.38
2022-08-29T01:03:02.737Z,1.60
2022-08-29T01:06:27.428Z,1.40
2022-08-29T01:09:49.446Z,1.38
2022-08-29T01:13:12.501Z,1.58
2022-08-29T01:16:37.011Z,1.08
2022-08-29T01:20:22.428Z,1.30
2022-08-29T01:24:15.101Z,1.27
2022-08-29T01:27:40.318Z,1.77
2022-08-29T01:31:10.515Z,1.13
2022-08-29T01:34:32.456Z,1.15
2022-08-29T01:37:54.697Z,1.60
2022-08-29T01:41:20.405Z,1.10
2022-08-29T01:44:47.496Z,2.00
2022-08-29T01:48:09.253Z,1.35
2022-08-29T01:51:31.751Z,1.15
2022-08-29T01:54:53.954Z,0.98
2022-08-29T01:58:16.356Z,1.00
2022-08-29T02:01:43.787Z,1.20
2022-08-29T02:05:06.071Z,1.08
2022-08-29T02:08:28.781Z,1.27
2022-08-29T02:11:52.348Z,1.70
2022-08-29T02:15:14.211Z,1.38
2022-08-29T02:18:36.036Z,0.98
2022-08-29T02:21:58.494Z,1.05
2022-08-29T02:25:39.075Z,1.52
2022-08-29T02:29:01.658Z,1.20
2022-08-29T02:32:23.402Z,1.13
2022-08-29T02:35:47.246Z,1.55
2022-08-29T02:39:09.662Z,0.90
2022-08-29T02:42:32.578Z,1.52
2022-08-29T02:45:54.585Z,1.30
2022-08-29T02:49:16.450Z,1.10
2022-08-29T02:52:39.961Z,1.40
2022-08-29T02:56:02.130Z,1.20
2022-08-29T02:59:23.870Z,1.27
2022-08-29T03:02:47.307Z,1.52
2022-08-29T03:06:09.080Z,1.02
2022-08-29T03:09:31.355Z,1.27
2022-08-29T03:12:53.646Z,1.10
2022-08-29T03:16:15.856Z,1.70
2022-08-29T03:19:37.824Z,1.27
2022-08-29T03:22:59.580Z,1.05
2022-08-29T03:26:21.641Z,1.58
2022-08-29T03:29:43.376Z,1.33
2022-08-29T03:33:09.869Z,1.30
2022-08-29T03:36:33.381Z,1.00
2022-08-29T03:39:55.354Z,1.65
2022-08-29T03:43:19.270Z,1.42
2022-08-29T03:46:41.343Z,1.20
2022-08-29T03:50:04.247Z,1.45
2022-08-29T03:53:26.457Z,1.20
2022-08-29T03:56:49.375Z,1.27
2022-08-29T04:00:16.142Z,1.15
2022-08-29T04:03:37.897Z,1.40
2022-08-29T04:06:59.878Z,1.33
2022-08-29T04:10:27.114Z,1.20
2022-08-29T04:13:49.106Z,1.58
2022-08-29T04:17:12.214Z,1.10
2022-08-29T04:20:44.733Z,1.45
2022-08-29T04:24:06.565Z,1.38
2022-08-29T04:27:28.302Z,1.40
2022-08-29T04:30:52.843Z,1.48
2022-08-29T04:34:14.836Z,1.23
2022-08-29T04:37:36.489Z,1.48
2022-08-29T04:40:58.261Z,1.38
2022-08-29T04:44:19.945Z,1.42
2022-08-29T04:47:42.555Z,1.70
2022-08-29T04:51:04.319Z,1.27
2022-08-29T04:54:26.031Z,1.80
2022-08-29T04:57:48.908Z,1.50
2022-08-29T05:01:15.967Z,1.63
2022-08-29T05:04:37.723Z,1.48
2022-08-29T05:07:59.469Z,1.50
2022-08-29T05:11:22.739Z,1.55
2022-08-29T05:14:44.970Z,1.48
2022-08-29T05:18:06.675Z,1.75
2022-08-29T05:21:34.894Z,1.50
2022-08-29T05:24:57.472Z,1.30
2022-08-29T05:28:19.289Z,1.45
2022-08-29T05:31:42.300Z,1.45
2022-08-29T05:35:07.710Z,1.60
2022-08-29T05:38:29.378Z,1.20
2022-08-29T05:41:55.208Z,1.10
2022-08-29T05:45:16.878Z,1.50
2022-08-29T05:48:41.852Z,1.23
2022-08-29T05:52:04.497Z,1.55
2022-08-29T05:55:27.198Z,1.25
2022-08-29T05:58:49.060Z,1.95
2022-08-29T06:02:11.634Z,1.60
2022-08-29T06:05:33.394Z,1.77
2022-08-29T06:08:56.125Z,1.33
2022-08-29T06:12:17.860Z,1.80
2022-08-29T06:15:44.476Z,1.13
2022-08-29T06:19:08.030Z,1.10
2022-08-29T06:22:29.928Z,2.60
2022-08-29T06:25:58.157Z,1.15
2022-08-29T06:29:19.966Z,1.30
2022-08-29T06:32:41.675Z,2.95
2022-08-29T06:36:05.667Z,1.50
2022-08-29T06:39:27.433Z,1.50
2022-08-29T06:42:49.236Z,1.40
2022-08-29T06:46:39.313Z,1.40
2022-08-29T06:50:01.247Z,1.20
2022-08-29T06:53:29.858Z,1.85
2022-08-29T06:56:54.519Z,1.63
2022-08-29T07:00:22.054Z,1.60
2022-08-29T07:03:44.959Z,1.30
2022-08-29T07:07:06.692Z,1.55
2022-08-29T07:10:28.499Z,2.25
2022-08-29T07:13:50.316Z,1.50
2022-08-29T07:17:12.258Z,1.45
2022-08-29T07:20:47.371Z,1.40
2022-08-29T07:24:09.505Z,2.00
2022-08-29T07:27:31.372Z,2.08
2022-08-29T07:30:53.177Z,1.50
2022-08-29T07:34:15.293Z,1.63
2022-08-29T07:37:37.048Z,1.45
2022-08-29T07:41:10.544Z,1.48
2022-08-29T07:44:34.669Z,1.38
2022-08-29T07:47:57.247Z,2.03
2022-08-29T07:51:22.886Z,1.98
2022-08-29T07:54:44.733Z,1.52
2022-08-29T07:58:06.631Z,2.20
2022-08-29T08:01:28.497Z,1.40
2022-08-29T08:04:52.418Z,1.60
2022-08-29T08:08:14.916Z,1.55
2022-08-29T08:11:38.898Z,1.55
2022-08-29T08:15:00.876Z,1.80
2022-08-29T08:18:23.340Z,1.77
2022-08-29T08:21:49.720Z,1.50
2022-08-29T08:25:11.980Z,1.63
2022-08-29T08:28:34.252Z,1.85
2022-08-29T08:31:59.663Z,1.40
2022-08-29T08:35:22.942Z,1.55
2022-08-29T08:38:45.536Z,1.65
2022-08-29T08:42:42.143Z,1.58
2022-08-29T08:46:04.339Z,1.90
2022-08-29T08:49:37.230Z,2.20
2022-08-29T08:53:07.612Z,1.60
2022-08-29T08:56:36.881Z,1.90
2022-08-29T08:59:59.252Z,2.47
2022-08-29T09:03:44.577Z,1.77
2022-08-29T09:07:47.196Z,1.77
2022-08-29T09:11:19.789Z,2.30
2022-08-29T09:15:16.926Z,1.55
2022-08-29T09:18:41.662Z,1.83
2022-08-29T09:22:20.907Z,1.73
2022-08-29T09:25:43.613Z,1.92
2022-08-29T09:29:09.862Z,2.30
2022-08-29T09:32:32.148Z,2.15
2022-08-29T09:35:55.822Z,2.35
2022-08-29T09:39:20.407Z,1.90
2022-08-29T09:42:46.357Z,2.05
2022-08-29T09:46:13.115Z,1.90
2022-08-29T09:49:37.232Z,1.92
2022-08-29T09:53:01.458Z,2.10
2022-08-29T09:56:26.990Z,2.20
2022-08-29T10:00:04.741Z,1.88
2022-08-29T10:03:30.046Z,1.55
2022-08-29T10:07:12.864Z,2.15
2022-08-29T10:10:36.413Z,2.03
2022-08-29T10:14:14.510Z,1.73
2022-08-29T10:18:05.214Z,1.70
2022-08-29T10:21:52.728Z,1.80
2022-08-29T10:25:32.734Z,1.83
2022-08-29T10:29:18.539Z,1.95
2022-08-29T10:32:59.243Z,2.13
2022-08-29T10:36:39.571Z,1.70
2022-08-29T10:40:16.781Z,2.20
2022-08-29T10:44:10.165Z,2.05
2022-08-29T10:47:53.101Z,2.28
2022-08-29T10:51:36.076Z,2.10
2022-08-29T10:55:00.516Z,2.15
2022-08-29T10:58:44.636Z,1.58
2022-08-29T11:02:33.949Z,2.60
2022-08-29T11:06:11.151Z,2.10
2022-08-29T11:09:47.525Z,2.00
2022-08-29T11:13:19.474Z,2.20
2022-08-29T11:16:48.664Z,1.98
2022-08-29T11:20:20.345Z,2.47
2022-08-29T11:23:46.500Z,1.95
2022-08-29T11:27:36.305Z,2.42
2022-08-29T11:31:01.350Z,2.17
2022-08-29T11:34:38.794Z,2.70
2022-08-29T11:38:51.633Z,2.50
2022-08-29T11:42:49.926Z,2.25
2022-08-29T11:46:02.527Z,2.05
2022-08-29T11:49:30.440Z,2.25
2022-08-29T11:53:24.558Z,1.92
2022-08-29T11:56:46.348Z,2.25
2022-08-29T12:00:46.918Z,2.40
2022-08-29T12:04:11.583Z,2.20
2022-08-29T12:07:51.805Z,2.53
2022-08-29T12:11:13.762Z,2.53
2022-08-29T12:14:48.117Z,2.45
2022-08-29T12:18:13.188Z,1.98
2022-08-29T12:21:38.246Z,2.28
2022-08-29T12:25:37.950Z,2.03
2022-08-29T12:29:01.726Z,2.00
2022-08-29T12:32:34.096Z,2.10
2022-08-29T12:36:11.115Z,1.85
2022-08-29T12:40:11.115Z,1.55
2022-08-29T12:43:42.554Z,2.25
2022-08-29T12:47:24.182Z,1.85
2022-08-29T12:50:48.138Z,2.13
2022-08-29T12:54:11.860Z,2.03
2022-08-29T12:57:36.065Z,2.42
2022-08-29T13:00:58.235Z,2.40
2022-08-29T13:04:23.433Z,2.10
2022-08-29T13:07:58.379Z,2.10
2022-08-29T13:11:24.934Z,2.00
2022-08-29T13:15:07.336Z,2.40
2022-08-29T13:18:31.140Z,2.40
2022-08-29T13:22:03.357Z,2.17
2022-08-29T13:25:32.256Z,2.00
2022-08-29T13:28:57.728Z,2.47
2022-08-29T13:32:26.360Z,1.98
2022-08-29T13:35:48.126Z,2.35
2022-08-29T13:39:24.746Z,2.15
2022-08-29T13:42:46.558Z,2.13
2022-08-29T13:46:16.683Z,2.42
2022-08-29T13:49:39.058Z,2.15
2022-08-29T13:53:00.912Z,1.90
2022-08-29T13:56:32.449Z,4.15
2022-08-29T13:59:55.153Z,2.30
2022-08-29T14:03:22.351Z,2.28
2022-08-29T14:06:45.667Z,2.60
2022-08-29T14:10:08.236Z,2.70
2022-08-29T14:13:30.030Z,2.13
2022-08-29T14:16:53.680Z,2.22
2022-08-29T14:20:17.569Z,2.10
2022-08-29T14:23:39.246Z,2.28
2022-08-29T14:27:02.701Z,2.40
2022-08-29T14:30:24.991Z,2.03
2022-08-29T14:33:46.810Z,2.72
2022-08-29T14:37:14.775Z,2.00
2022-08-29T14:40:36.615Z,1.88
2022-08-29T14:43:59.984Z,2.30
2022-08-29T14:47:21.694Z,2.28
2022-08-29T14:50:43.461Z,2.20
2022-08-29T14:54:05.255Z,2.20
2022-08-29T14:57:27.016Z,2.20
2022-08-29T15:00:49.158Z,1.90
2022-08-29T15:04:12.083Z,2.65
2022-08-29T15:07:36.008Z,1.88
2022-08-29T15:10:57.884Z,2.15
2022-08-29T15:14:19.561Z,1.75
2022-08-29T15:17:43.441Z,2.35
2022-08-29T15:21:06.376Z,1.70
2022-08-29T15:24:29.803Z,2.20
2022-08-29T15:27:51.796Z,2.00
2022-08-29T15:31:14.690Z,2.05
2022-08-29T15:34:36.507Z,1.88
2022-08-29T15:37:58.331Z,2.10
2022-08-29T15:41:20.236Z,2.00
2022-08-29T15:44:41.943Z,1.95
2022-08-29T15:48:11.613Z,2.00
2022-08-29T15:51:34.716Z,1.95
2022-08-29T15:54:57.243Z,2.22
2022-08-29T15:58:19.087Z,1.95
2022-08-29T16:01:50.623Z,2.10
2022-08-29T16:05:13.138Z,2.60
2022-08-29T16:08:34.979Z,1.88
2022-08-29T16:11:57.146Z,2.10
2022-08-29T16:15:18.924Z,2.08
2022-08-29T16:18:41.739Z,4.45
2022-08-29T16:22:03.707Z,2.10
2022-08-29T16:25:26.796Z,1.73
2022-08-29T16:28:49.182Z,1.77
2022-08-29T16:32:11.096Z,1.83
2022-08-29T16:35:32.856Z,1.60
2022-08-29T16:38:55.184Z,1.75
2022-08-29T16:42:17.173Z,2.15
2022-08-29T16:45:39.341Z,2.25
2022-08-29T16:49:01.108Z,1.77
2022-08-29T16:52:22.872Z,1.98
2022-08-29T16:55:44.600Z,2.30
2022-08-29T16:59:06.937Z,1.83
2022-08-29T17:02:29.381Z,2.10
2022-08-29T17:05:51.247Z,2.00
2022-08-29T17:09:12.946Z,2.28
2022-08-29T17:12:34.677Z,1.60
2022-08-29T17:16:05.283Z,1.80
2022-08-29T17:19:27.001Z,1.88
2022-08-29T17:22:48.846Z,2.25
2022-08-29T17:26:13.248Z,1.98
2022-08-29T17:29:36.994Z,2.17
2022-08-29T17:32:58.677Z,1.90
2022-08-29T17:36:21.555Z,1.95
2022-08-29T17:39:43.383Z,2.42
2022-08-29T17:43:05.345Z,2.10
2022-08-29T17:46:27.350Z,2.20
2022-08-29T17:49:50.575Z,2.08
2022-08-29T17:53:12.744Z,3.00
2022-08-29T17:56:46.061Z,2.30
2022-08-29T18:00:09.472Z,2.33
2022-08-29T18:03:33.894Z,2.05
2022-08-29T18:06:56.377Z,2.00
2022-08-29T18:10:19.698Z,2.22
2022-08-29T18:13:41.965Z,2.08
2022-08-29T18:17:03.931Z,2.42
2022-08-29T18:20:25.970Z,2.58
2022-08-29T18:23:47.803Z,2.13
2022-08-29T18:27:09.609Z,2.33
2022-08-29T18:30:31.336Z,2.15
2022-08-29T18:34:01.468Z,2.33
2022-08-29T18:37:23.513Z,2.33
2022-08-29T18:40:46.502Z,2.38
2022-08-29T18:44:12.803Z,2.30
2022-08-29T18:47:34.570Z,2.58
2022-08-29T18:50:58.071Z,2.40
2022-08-29T18:54:21.340Z,2.50
2022-08-29T18:57:44.827Z,2.72
2022-08-29T19:01:12.296Z,2.20
2022-08-29T19:04:34.020Z,2.30
2022-08-29T19:07:56.070Z,2.22
2022-08-29T19:11:18.351Z,2.40
2022-08-29T19:14:45.923Z,2.55
2022-08-29T19:18:09.587Z,2.80
2022-08-29T19:21:33.251Z,2.20
2022-08-29T19:24:55.161Z,2.38
2022-08-29T19:28:19.669Z,2.33
2022-08-29T19:31:42.214Z,2.13
2022-08-29T19:35:05.260Z,2.35
2022-08-29T19:38:27.560Z,2.30
2022-08-29T19:41:50.770Z,2.67
2022-08-29T19:45:14.505Z,2.20
2022-08-29T19:48:36.371Z,2.60
2022-08-29T19:51:59.015Z,2.33
2022-08-29T19:55:22.847Z,2.13
2022-08-29T19:58:45.841Z,2.45
2022-08-29T20:02:07.729Z,2.58
2022-08-29T20:05:29.782Z,1.73
2022-08-29T20:08:51.611Z,2.25
2022-08-29T20:12:13.685Z,2.17
2022-08-29T20:15:35.441Z,2.20
2022-08-29T20:18:57.389Z,2.25
2022-08-29T20:22:20.475Z,2.25
2022-08-29T20:25:42.454Z,2.17
2022-08-29T20:29:09.077Z,2.17
2022-08-29T20:32:31.301Z,2.42
2022-08-29T20:36:11.882Z,2.05
2022-08-29T20:39:33.592Z,1.95
2022-08-29T20:42:55.490Z,2.58
2022-08-29T20:46:17.168Z,2.42
2022-08-29T20:49:40.761Z,2.58
2022-08-29T20:53:06.289Z,2.40
2022-08-29T20:56:28.088Z,2.47
2022-08-29T20:59:49.835Z,2.72
2022-08-29T21:03:30.551Z,2.22
2022-08-29T21:06:57.772Z,2.25
2022-08-29T21:10:20.298Z,2.55
2022-08-29T21:13:43.366Z,2.47
2022-08-29T21:17:05.975Z,2.40
2022-08-29T21:20:27.915Z,2.60
2022-08-29T21:23:49.654Z,3.17
2022-08-29T21:27:11.807Z,2.50
2022-08-29T21:30:35.948Z,2.47
2022-08-29T21:33:57.691Z,3.03
2022-08-29T21:37:19.568Z,2.40
2022-08-29T21:40:50.610Z,2.17
2022-08-29T21:44:14.861Z,2.28
2022-08-29T21:47:37.444Z,2.10
2022-08-29T21:50:59.795Z,2.40
2022-08-29T21:54:21.993Z,2.20
2022-08-29T21:57:51.638Z,1.92
2022-08-29T22:01:13.474Z,1.92
2022-08-29T22:04:35.522Z,2.13
2022-08-29T22:07:58.221Z,2.67
2022-08-29T22:11:37.079Z,1.95
2022-08-29T22:15:35.036Z,2.30
2022-08-29T22:18:57.693Z,2.33
2022-08-29T22:22:19.446Z,2.15
2022-08-29T22:25:41.323Z,2.50
2022-08-29T22:29:05.278Z,2.38
2022-08-29T22:32:27.218Z,2.28
2022-08-29T22:35:57.271Z,1.75
2022-08-29T22:39:18.901Z,2.67
2022-08-29T22:42:41.551Z,2.20
2022-08-29T22:46:10.472Z,1.90
2022-08-29T22:49:33.258Z,1.85
2022-08-29T22:52:56.786Z,1.95
2022-08-29T22:56:18.470Z,1.95
2022-08-29T22:59:41.874Z,1.80
2022-08-29T23:03:03.848Z,2.00
2022-08-29T23:06:27.214Z,1.85
2022-08-29T23:09:50.585Z,1.90
2022-08-29T23:13:12.571Z,1.85
2022-08-29T23:16:37.110Z,1.80
2022-08-29T23:19:58.866Z,2.10
2022-08-29T23:23:20.605Z,2.00
2022-08-29T23:26:43.428Z,2.20
2022-08-29T23:30:08.736Z,2.17
2022-08-29T23:33:30.481Z,2.03
2022-08-29T23:36:52.353Z,2.05
2022-08-29T23:40:14.150Z,2.13
2022-08-29T23:43:36.891Z,2.08
2022-08-29T23:46:58.895Z,2.05
2022-08-29T23:50:20.731Z,2.00
2022-08-29T23:53:44.360Z,2.22
2022-08-29T23:57:06.068Z,1.90
